Terminal Aerodrome Forecast
Issued by NWS

Home | Current Version | Previous Version | Graphics & Text | Print | Product List | Glossary On
Versions: 1 2 3 4 5 6 7 8 9 10 11 12 13 14 15 16 17
000
FTUS43 KICT 212300
TAFHUT
TAF
KHUT 212334Z 2200/2224 20015G22KT P6SM SCT250
     FM220200 18012KT P6SM BKN250
     FM221400 19014G24KT P6SM BKN250=

USA.gov is the U.S. government's official web portal to all federal, state and local government web resources and services.